KOXD/OXD METAR and TAF weather

Enter ICAO airport designator
Station Type Date Time Source
KOXD METAR 2022/06/28 09:35 UTC NOAA

KOXD 280935Z AUTO 00000KT 10SM CLR 12/07 A3025 RMK AO2 T01220071


Station Type Date Time Source
KOXD Decoded METAR 2022/06/28 09:35 UTC NOAA

Station name not available
Jun 28, 2022 - 05:35 AM EDT / 2022.06.28 0935 UTC
Wind: Calm:0
Visibility: 10 mile(s):0
Sky conditions: clear
Temperature: 54.0 F (12.2 C)
Dew Point: 44.8 F (7.1 C)
Relative Humidity: 70%
Pressure (altimeter): 30.25 in. Hg (1024 hPa)
ob: KOXD 280935Z AUTO 00000KT 10SM CLR 12/07 A3025 RMK AO2 T01220071
cycle: 9

Station Type Date Time Source
KOXD TAF UTC NOAA

Error!

Example: see airport list